Terminal Aerodrome Forecast
Issued by NWS North Platte, NE

Home | Current Version | Previous Version | Graphics & Text | Print | Product List | Glossary On
Versions: 1 2 3 4 5 6 7 8 9 10 11 12 13 14 15 16 17 18
837
FTUS43 KLBF 250922 AAA
TAFVTN
TAF AMD
KVTN 250922Z 2509/2606 VRB05KT P6SM OVC007
      TEMPO 2510/2512 SCT007 BKN120
     FM251200 VRB05KT P6SM SCT120 BKN250
     FM251900 27010G19KT P6SM SKC
     FM260000 28009KT P6SM SKC=

USA.gov is the U.S. government's official web portal to all federal, state and local government web resources and services.